Time;durP1;ratioP1;P1;durP2;ratioP2;P2;SDS_P1;SDS_P2;PMS_P1;PMS_P2;Temp;Humidity;BMP_temperature;BMP_pressure;BME280_temperature;BME280_humidity;BME280_pressure;Samples;Min_cycle;Max_cycle;Signal;HPM_P1;HPM_P2
2022/10/23 00:01:10;;;;;;;13.48;7.03;;;11.30;99.90;;;;;;4975389;28;20042;-74
2022/10/23 00:03:35;;;;;;;12.60;7.38;;;11.30;99.90;;;;;;4992310;28;20121;-74
2022/10/23 00:06:03;;;;;;;14.30;7.63;;;11.30;99.90;;;;;;4991471;28;20122;-74
2022/10/23 00:08:29;;;;;;;11.45;7.10;;;11.20;99.90;;;;;;4992146;28;20053;-74
2022/10/23 00:10:54;;;;;;;12.52;7.97;;;11.20;99.90;;;;;;4990665;28;20125;-74
2022/10/23 00:13:20;;;;;;;12.80;7.50;;;11.20;99.90;;;;;;4987938;28;20542;-75
2022/10/23 00:15:45;;;;;;;13.07;7.65;;;11.20;99.90;;;;;;4976033;28;20241;-74
2022/10/23 00:18:11;;;;;;;17.40;8.65;;;11.20;99.90;;;;;;4991426;28;20038;-74
2022/10/23 00:20:36;;;;;;;12.50;8.52;;;11.30;99.90;;;;;;4991849;28;20035;-74
2022/10/23 00:23:02;;;;;;;14.23;9.40;;;11.30;99.90;;;;;;4994800;28;20038;-74
2022/10/23 00:25:28;;;;;;;16.20;8.38;;;11.30;99.90;;;;;;4994901;28;20041;-74
2022/10/23 00:27:53;;;;;;;14.43;9.00;;;11.30;99.90;;;;;;5001849;28;20042;-74
2022/10/23 00:30:19;;;;;;;17.73;9.05;;;11.40;99.90;;;;;;4978531;28;20478;-74
2022/10/23 00:32:45;;;;;;;12.82;8.50;;;11.40;99.90;;;;;;4991114;28;20102;-74
2022/10/23 00:35:10;;;;;;;13.40;8.75;;;11.50;99.90;;;;;;4994830;28;20043;-74
2022/10/23 00:37:36;;;;;;;16.95;8.88;;;11.60;99.90;;;;;;4995614;28;20084;-74
2022/10/23 00:40:02;;;;;;;16.55;8.95;;;11.50;99.90;;;;;;4984218;28;20210;-74
2022/10/23 00:42:28;;;;;;;13.27;9.32;;;11.50;99.90;;;;;;4977539;28;20046;-74
2022/10/23 00:44:53;;;;;;;16.27;9.25;;;11.60;99.90;;;;;;4995824;28;20045;-74
2022/10/23 00:47:19;;;;;;;13.90;8.63;;;11.70;99.90;;;;;;4978463;28;20125;-74
2022/10/23 00:49:45;;;;;;;11.38;8.20;;;11.60;99.90;;;;;;4995392;28;20042;-74
2022/10/23 00:52:12;;;;;;;13.60;8.52;;;11.60;99.90;;;;;;4979518;28;20046;-74
2022/10/23 00:54:41;;;;;;;13.73;9.05;;;11.60;99.90;;;;;;5008769;28;20038;-74
2022/10/23 00:57:13;;;;;;;15.85;8.65;;;11.50;99.90;;;;;;4988689;28;20061;-74
2022/10/23 00:59:39;;;;;;;13.25;8.65;;;11.50;99.90;;;;;;4991700;28;20073;-74
2022/10/23 01:02:05;;;;;;;17.13;8.65;;;11.50;99.90;;;;;;5011262;28;20045;-74
2022/10/23 01:04:32;;;;;;;12.40;8.02;;;11.50;99.90;;;;;;4995116;28;20038;-74
2022/10/23 01:06:57;;;;;;;11.73;7.47;;;11.50;99.90;;;;;;4989960;28;20057;-74
2022/10/23 01:09:48;;;;;;;12.82;8.07;;;11.50;99.90;;;;;;4978718;28;20042;-74
2022/10/23 01:12:26;;;;;;;12.38;8.10;;;11.40;99.90;;;;;;4995040;28;20042;-74
2022/10/23 01:15:29;;;;;;;13.85;7.30;;;11.40;99.90;;;;;;4978804;28;20038;-74
2022/10/23 01:18:16;;;;;;;13.00;7.75;;;11.40;99.90;;;;;;4978709;28;20046;-74
2022/10/23 01:20:54;;;;;;;11.60;7.15;;;11.30;99.90;;;;;;4978887;28;20435;-74
2022/10/23 01:23:44;;;;;;;11.18;7.82;;;11.30;99.90;;;;;;4995107;28;20177;-75
2022/10/23 01:26:22;;;;;;;12.30;8.45;;;11.30;99.90;;;;;;4977460;28;20039;-74
2022/10/23 01:29:44;;;;;;;12.27;7.60;;;11.30;99.90;;;;;;4975158;28;20125;-74
2022/10/23 01:32:38;;;;;;;9.90;6.93;;;11.30;99.90;;;;;;4932847;29;20086;-74
2022/10/23 01:35:12;;;;;;;12.07;7.82;;;11.20;99.90;;;;;;4975109;28;20046;-74
2022/10/23 01:37:45;;;;;;;11.10;6.78;;;11.20;99.90;;;;;;5007816;28;20125;-74
2022/10/23 01:40:29;;;;;;;11.98;6.88;;;11.20;99.90;;;;;;4991207;28;20051;-74
2022/10/23 01:43:01;;;;;;;11.05;6.28;;;11.10;99.90;;;;;;4973419;28;20107;-74
2022/10/23 01:45:37;;;;;;;9.27;6.45;;;11.10;99.90;;;;;;4993933;28;20076;-74
2022/10/23 01:48:06;;;;;;;10.77;6.15;;;11.10;99.90;;;;;;4994024;28;20413;-76
2022/10/23 01:50:32;;;;;;;9.55;5.72;;;11.00;99.90;;;;;;5026979;28;20049;-74
2022/10/23 01:52:58;;;;;;;11.07;6.65;;;11.00;99.90;;;;;;5010704;28;20034;-74
2022/10/23 01:55:24;;;;;;;12.23;6.60;;;10.90;99.90;;;;;;5010501;28;20038;-74
2022/10/23 01:57:52;;;;;;;9.30;6.30;;;10.90;99.90;;;;;;5010326;28;20070;-74
2022/10/23 02:00:18;;;;;;;14.38;6.43;;;10.80;99.90;;;;;;4977795;28;20141;-75
2022/10/23 02:02:46;;;;;;;9.32;5.40;;;10.80;99.90;;;;;;4993501;28;20148;-75
2022/10/23 02:05:19;;;;;;;11.50;6.10;;;10.80;99.90;;;;;;4994335;28;20389;-75
2022/10/23 02:07:45;;;;;;;10.82;6.18;;;10.80;99.90;;;;;;4993992;28;20042;-75
2022/10/23 02:10:12;;;;;;;10.70;6.50;;;10.80;99.90;;;;;;4993908;28;20038;-75
2022/10/23 02:12:47;;;;;;;11.80;6.75;;;10.70;99.90;;;;;;4977945;28;20035;-75
2022/10/23 02:15:36;;;;;;;12.63;7.35;;;10.70;99.90;;;;;;4977636;28;20046;-75
2022/10/23 02:18:32;;;;;;;10.20;6.97;;;10.70;99.90;;;;;;4993813;28;20046;-75
2022/10/23 02:21:08;;;;;;;12.27;7.72;;;10.70;99.90;;;;;;4993989;28;20401;-74
2022/10/23 02:23:38;;;;;;;12.60;8.40;;;10.70;99.90;;;;;;4993788;28;20108;-74
2022/10/23 02:26:14;;;;;;;12.07;7.80;;;10.70;99.90;;;;;;4993769;28;20046;-75
2022/10/23 02:28:48;;;;;;;16.17;8.63;;;10.80;99.90;;;;;;4977520;28;20492;-75
2022/10/23 02:31:18;;;;;;;15.70;9.45;;;10.80;99.90;;;;;;4991742;28;20053;-75
2022/10/23 02:33:46;;;;;;;14.50;9.50;;;10.90;99.90;;;;;;4993467;28;20078;-75
2022/10/23 02:36:13;;;;;;;18.27;9.95;;;11.00;99.90;;;;;;4977277;28;20088;-75
2022/10/23 02:38:41;;;;;;;16.65;9.30;;;11.20;99.90;;;;;;4977222;28;20038;-75
2022/10/23 02:41:32;;;;;;;13.85;9.10;;;11.20;99.90;;;;;;4993287;28;20077;-75
2022/10/23 02:44:17;;;;;;;14.95;9.52;;;11.20;99.90;;;;;;4993308;28;20500;-75
2022/10/23 02:46:58;;;;;;;14.70;8.90;;;11.20;99.90;;;;;;4992978;28;20104;-74
2022/10/23 02:49:30;;;;;;;16.92;9.98;;;11.10;99.90;;;;;;4977150;28;20050;-75
2022/10/23 02:52:22;;;;;;;12.20;8.80;;;11.20;99.90;;;;;;4993207;28;20092;-75
2022/10/23 02:54:55;;;;;;;13.80;9.75;;;11.20;99.90;;;;;;4993213;28;20039;-75
2022/10/23 02:57:28;;;;;;;13.30;9.05;;;11.10;99.90;;;;;;4977239;28;20050;-75
2022/10/23 03:00:12;;;;;;;14.00;8.95;;;11.10;99.90;;;;;;4992092;28;20061;-74
2022/10/23 03:02:44;;;;;;;13.43;8.90;;;11.10;99.90;;;;;;4976349;28;20101;-74
2022/10/23 03:05:15;;;;;;;13.25;8.88;;;11.10;99.90;;;;;;4976814;28;20093;-75
2022/10/23 03:07:42;;;;;;;12.80;9.02;;;11.10;99.90;;;;;;4976796;28;20042;-74
2022/10/23 03:10:09;;;;;;;14.07;8.75;;;11.10;99.90;;;;;;4976551;28;20496;-74
2022/10/23 03:12:34;;;;;;;13.48;8.45;;;11.10;99.90;;;;;;4992806;28;20038;-75
2022/10/23 03:15:00;;;;;;;15.07;9.32;;;11.00;99.90;;;;;;4992895;28;20125;-75
2022/10/23 03:17:26;;;;;;;12.60;8.45;;;11.10;99.90;;;;;;4992769;28;20125;-75
2022/10/23 03:19:51;;;;;;;17.52;9.38;;;11.10;99.90;;;;;;4993008;28;20099;-74
2022/10/23 03:22:17;;;;;;;13.52;9.18;;;11.00;99.90;;;;;;4992696;28;20481;-74
2022/10/23 03:24:43;;;;;;;14.18;8.60;;;11.00;99.90;;;;;;4992834;28;20069;-74
2022/10/23 03:27:10;;;;;;;14.27;9.18;;;11.00;99.90;;;;;;4976664;28;20089;-74
2022/10/23 03:29:36;;;;;;;13.02;8.23;;;11.00;99.90;;;;;;4975725;28;20388;-74
2022/10/23 03:32:02;;;;;;;12.25;8.57;;;11.00;99.90;;;;;;4991730;28;20519;-74
2022/10/23 03:34:27;;;;;;;10.88;8.05;;;11.00;99.90;;;;;;4976594;28;20046;-75
2022/10/23 03:36:53;;;;;;;11.77;8.18;;;11.00;99.90;;;;;;4992565;28;20043;-75
2022/10/23 03:39:18;;;;;;;13.18;8.00;;;11.00;99.90;;;;;;4992451;28;20381;-75
2022/10/23 03:41:44;;;;;;;12.75;8.45;;;11.00;99.90;;;;;;4976287;28;20065;-75
2022/10/23 03:44:09;;;;;;;13.63;8.57;;;10.90;99.90;;;;;;4992452;28;20400;-75
2022/10/23 03:46:35;;;;;;;14.00;8.57;;;10.90;99.90;;;;;;4992390;28;20038;-75
2022/10/23 03:49:01;;;;;;;13.52;8.48;;;10.90;99.90;;;;;;4992764;28;20112;-74
2022/10/23 03:51:26;;;;;;;13.52;8.77;;;10.90;99.90;;;;;;4992339;28;20085;-75
2022/10/23 03:53:52;;;;;;;12.60;9.30;;;10.90;99.90;;;;;;4992384;28;20042;-74
2022/10/23 03:56:18;;;;;;;12.32;8.43;;;10.90;99.90;;;;;;4976579;28;20073;-75
2022/10/23 03:58:43;;;;;;;13.43;7.78;;;10.90;99.90;;;;;;4995919;28;20050;-74
2022/10/23 04:01:09;;;;;;;14.15;7.40;;;10.90;99.90;;;;;;4995291;28;20042;-74
2022/10/23 04:03:34;;;;;;;10.85;7.10;;;10.90;99.90;;;;;;4980078;28;20061;-74
2022/10/23 04:06:00;;;;;;;12.20;7.88;;;10.80;99.90;;;;;;4996559;28;20043;-74
2022/10/23 04:08:25;;;;;;;10.27;7.50;;;10.80;99.90;;;;;;4996007;28;20558;-74
2022/10/23 04:10:52;;;;;;;15.02;8.02;;;10.80;99.90;;;;;;4996052;28;20509;-74
2022/10/23 04:13:18;;;;;;;15.48;9.23;;;10.80;99.90;;;;;;4980242;28;20380;-74
2022/10/23 04:15:51;;;;;;;16.10;10.55;;;10.80;99.90;;;;;;4996317;28;20038;-74
2022/10/23 04:18:17;;;;;;;16.98;11.68;;;10.80;99.90;;;;;;4980086;28;20085;-74
2022/10/23 04:20:43;;;;;;;17.52;11.73;;;10.80;99.90;;;;;;4979691;28;20129;-75
2022/10/23 04:23:08;;;;;;;18.38;11.63;;;10.80;99.90;;;;;;4979791;28;20042;-75
2022/10/23 04:25:34;;;;;;;16.17;11.55;;;10.80;99.90;;;;;;4979946;28;20050;-75
2022/10/23 04:28:00;;;;;;;48.08;43.85;;;10.80;99.90;;;;;;4995882;28;20038;-75
2022/10/23 04:30:25;;;;;;;27.08;19.02;;;10.80;99.90;;;;;;4978679;28;20038;-75
2022/10/23 04:32:51;;;;;;;17.08;12.55;;;10.80;99.90;;;;;;5012021;28;20399;-74
2022/10/23 04:35:18;;;;;;;24.52;22.13;;;10.80;99.90;;;;;;4995728;28;20045;-74
2022/10/23 04:37:44;;;;;;;18.38;16.48;;;10.80;99.90;;;;;;4995607;28;20129;-74
2022/10/23 04:40:10;;;;;;;17.38;11.52;;;10.80;99.90;;;;;;4979452;28;20515;-75
2022/10/23 04:42:36;;;;;;;17.38;12.00;;;10.80;99.90;;;;;;4995583;28;20042;-75
2022/10/23 04:45:01;;;;;;;17.20;11.95;;;10.80;99.90;;;;;;4995821;28;20048;-75
2022/10/23 04:47:27;;;;;;;17.88;11.70;;;10.80;99.90;;;;;;4995465;28;20047;-75
2022/10/23 04:49:52;;;;;;;16.25;12.10;;;10.80;99.90;;;;;;4995458;28;20042;-75
2022/10/23 04:52:18;;;;;;;17.67;12.75;;;10.80;99.90;;;;;;5011607;28;20038;-75
2022/10/23 04:54:44;;;;;;;18.35;12.95;;;10.70;99.90;;;;;;4995344;28;20038;-75
2022/10/23 04:57:09;;;;;;;20.02;11.30;;;10.80;99.90;;;;;;4979083;28;20053;-75
2022/10/23 04:59:35;;;;;;;17.42;11.30;;;10.80;99.90;;;;;;5010360;28;20054;-75
2022/10/23 05:02:00;;;;;;;18.65;10.77;;;10.80;99.90;;;;;;4995096;28;20481;-75
2022/10/23 05:04:26;;;;;;;17.65;11.00;;;10.80;99.90;;;;;;4979271;28;20038;-75
2022/10/23 05:06:52;;;;;;;16.70;11.07;;;10.80;99.90;;;;;;4994975;28;20501;-75
2022/10/23 05:09:17;;;;;;;14.70;10.82;;;10.80;99.90;;;;;;5011185;28;20050;-75
2022/10/23 05:11:43;;;;;;;17.85;11.45;;;10.80;99.90;;;;;;4995257;28;20514;-75
2022/10/23 05:14:09;;;;;;;16.25;11.18;;;10.90;99.90;;;;;;5011423;28;20034;-75
2022/10/23 05:16:34;;;;;;;15.25;10.82;;;10.90;99.90;;;;;;4994905;28;20035;-75
2022/10/23 05:19:00;;;;;;;16.23;11.30;;;10.80;99.90;;;;;;4994935;28;20049;-75
2022/10/23 05:21:28;;;;;;;16.63;11.50;;;10.80;99.90;;;;;;5027995;28;20455;-75
2022/10/23 05:23:54;;;;;;;18.75;10.98;;;10.80;99.90;;;;;;4978839;28;20056;-75
2022/10/23 05:26:21;;;;;;;16.05;11.02;;;10.80;99.90;;;;;;4978621;28;20497;-75
2022/10/23 05:28:47;;;;;;;17.58;11.00;;;10.80;99.90;;;;;;4993782;28;20501;-75
2022/10/23 05:31:13;;;;;;;16.13;10.98;;;10.70;99.90;;;;;;4978660;28;20042;-75
2022/10/23 05:33:39;;;;;;;17.40;11.35;;;10.70;99.90;;;;;;4978463;28;20038;-75
2022/10/23 05:36:07;;;;;;;15.60;11.38;;;10.80;99.90;;;;;;4978480;28;20050;-75
2022/10/23 05:38:34;;;;;;;17.80;11.30;;;10.70;99.90;;;;;;4994741;28;20042;-75
2022/10/23 05:41:00;;;;;;;16.45;10.88;;;10.60;99.90;;;;;;4994805;28;20050;-75
2022/10/23 05:43:26;;;;;;;14.57;10.80;;;10.60;99.90;;;;;;4978522;28;20045;-75
2022/10/23 05:45:52;;;;;;;15.50;10.15;;;10.70;99.90;;;;;;4994456;28;20130;-75
2022/10/23 05:48:18;;;;;;;15.30;10.45;;;10.70;99.90;;;;;;4978159;28;20089;-75
2022/10/23 05:50:43;;;;;;;15.07;10.48;;;10.70;99.90;;;;;;4978118;28;20038;-75
2022/10/23 05:53:10;;;;;;;16.80;11.30;;;10.70;99.90;;;;;;4978018;28;20040;-75
2022/10/23 05:55:36;;;;;;;15.75;10.57;;;10.60;99.90;;;;;;4978307;28;20046;-75
2022/10/23 05:58:03;;;;;;;16.77;11.00;;;10.60;99.90;;;;;;4994003;28;20066;-75
2022/10/23 06:00:29;;;;;;;12.82;10.25;;;10.60;99.90;;;;;;4993529;28;20471;-75
2022/10/23 06:02:54;;;;;;;15.07;10.60;;;10.60;99.90;;;;;;4993157;28;20073;-74
2022/10/23 06:05:20;;;;;;;16.50;10.68;;;10.60;99.90;;;;;;4977903;28;20072;-75
2022/10/23 06:07:45;;;;;;;16.60;11.35;;;10.70;99.90;;;;;;4993987;28;20043;-74
2022/10/23 06:10:11;;;;;;;16.15;11.38;;;10.70;99.90;;;;;;4994303;28;20038;-75
2022/10/23 06:12:37;;;;;;;17.92;11.00;;;10.70;99.90;;;;;;4993860;28;20057;-75
2022/10/23 06:15:03;;;;;;;18.27;10.73;;;10.70;99.90;;;;;;4978033;28;20117;-75
2022/10/23 06:17:29;;;;;;;16.85;11.40;;;10.60;99.90;;;;;;4977864;28;20137;-75
2022/10/23 06:19:59;;;;;;;21.30;11.50;;;10.60;99.90;;;;;;4976781;28;20129;-75
2022/10/23 06:22:26;;;;;;;19.85;10.90;;;10.60;99.90;;;;;;4993684;28;20500;-75
2022/10/23 06:24:52;;;;;;;16.60;11.32;;;10.60;99.90;;;;;;4977855;28;20503;-75
2022/10/23 06:27:18;;;;;;;16.20;11.43;;;10.60;99.90;;;;;;4993675;28;20132;-75
2022/10/23 06:29:43;;;;;;;15.57;10.75;;;10.60;99.90;;;;;;4992923;28;20046;-75
2022/10/23 06:32:09;;;;;;;17.38;12.05;;;10.60;99.90;;;;;;4976273;28;20034;-75
2022/10/23 06:34:34;;;;;;;18.38;11.38;;;10.60;99.90;;;;;;5015920;28;20045;-75
2022/10/23 06:37:00;;;;;;;18.23;11.45;;;10.70;99.90;;;;;;4990062;28;20053;-75
2022/10/23 06:39:25;;;;;;;18.95;11.40;;;10.70;99.90;;;;;;4993735;28;20035;-75
2022/10/23 06:41:51;;;;;;;21.80;12.55;;;10.70;99.90;;;;;;4993292;28;20539;-75
2022/10/23 06:44:16;;;;;;;17.42;11.52;;;10.70;99.90;;;;;;4993323;28;20049;-75
2022/10/23 06:46:45;;;;;;;21.40;13.00;;;10.70;99.90;;;;;;4976960;28;20133;-75
2022/10/23 06:49:12;;;;;;;18.88;11.85;;;10.70;99.90;;;;;;4977007;28;20038;-75
2022/10/23 06:51:38;;;;;;;17.77;11.73;;;10.70;99.90;;;;;;4993309;28;20046;-75
2022/10/23 06:54:04;;;;;;;17.63;11.90;;;10.70;99.90;;;;;;4976968;28;20045;-75
2022/10/23 06:56:29;;;;;;;20.27;12.32;;;10.70;99.90;;;;;;4993240;28;20093;-75
2022/10/23 06:58:55;;;;;;;18.70;12.48;;;10.70;99.90;;;;;;4992862;28;20101;-75
2022/10/23 07:01:21;;;;;;;21.30;12.68;;;10.70;99.90;;;;;;4993083;28;20042;-75
2022/10/23 07:03:47;;;;;;;18.30;11.90;;;10.80;99.90;;;;;;4976721;28;20039;-75
2022/10/23 07:06:13;;;;;;;18.55;12.48;;;10.80;99.90;;;;;;4991669;28;20042;-75
2022/10/23 07:08:39;;;;;;;21.58;13.05;;;10.90;99.90;;;;;;4991505;28;20468;-75
2022/10/23 07:11:06;;;;;;;16.60;11.50;;;10.90;99.90;;;;;;4976727;28;20066;-75
2022/10/23 07:13:33;;;;;;;23.15;12.65;;;10.90;99.90;;;;;;4992790;28;20121;-75
2022/10/23 07:16:10;;;;;;;20.52;12.52;;;10.90;99.90;;;;;;4992690;28;20089;-75
2022/10/23 07:18:36;;;;;;;18.10;11.98;;;10.90;99.90;;;;;;4976682;28;20038;-75
2022/10/23 07:21:01;;;;;;;21.00;13.07;;;10.90;99.90;;;;;;4976511;28;20093;-75
2022/10/23 07:23:27;;;;;;;20.20;13.00;;;10.90;99.90;;;;;;4990591;28;20038;-75
2022/10/23 07:25:52;;;;;;;18.98;12.85;;;10.90;99.90;;;;;;5005935;28;20128;-75
2022/10/23 07:28:18;;;;;;;19.05;13.13;;;10.90;99.90;;;;;;4980422;28;20457;-75
2022/10/23 07:30:44;;;;;;;21.20;13.40;;;10.90;99.90;;;;;;5025481;28;20057;-75
2022/10/23 07:33:11;;;;;;;20.83;12.88;;;11.00;99.90;;;;;;5025284;28;20053;-75
2022/10/23 07:35:41;;;;;;;21.17;11.98;;;11.00;99.90;;;;;;5016994;28;20395;-75
2022/10/23 07:38:07;;;;;;;17.80;12.48;;;11.00;99.90;;;;;;4992704;28;20463;-75
2022/10/23 07:40:33;;;;;;;19.55;12.20;;;11.10;99.90;;;;;;4992535;28;20042;-75
2022/10/23 07:42:59;;;;;;;19.80;11.82;;;11.10;99.90;;;;;;4976355;28;20396;-75
2022/10/23 07:45:24;;;;;;;19.02;11.48;;;11.10;99.90;;;;;;4992443;28;20125;-75
2022/10/23 07:47:51;;;;;;;19.15;12.52;;;11.10;99.90;;;;;;4992228;28;20042;-75
2022/10/23 07:50:17;;;;;;;21.38;12.35;;;11.10;99.90;;;;;;4976259;28;20038;-75
2022/10/23 07:52:43;;;;;;;17.13;12.20;;;11.20;99.90;;;;;;4976137;28;20088;-76
2022/10/23 07:55:09;;;;;;;20.45;11.07;;;11.20;99.90;;;;;;5024225;28;20042;-75
2022/10/23 07:57:36;;;;;;;20.13;11.48;;;11.20;99.90;;;;;;4976203;28;20046;-75
2022/10/23 08:00:02;;;;;;;16.50;10.77;;;11.20;99.90;;;;;;4992394;28;20065;-76
2022/10/23 08:02:28;;;;;;;16.80;10.55;;;11.30;99.90;;;;;;4992264;28;20053;-76
2022/10/23 08:04:54;;;;;;;21.02;12.30;;;11.40;99.90;;;;;;4976101;28;20125;-75
2022/10/23 08:07:19;;;;;;;20.30;11.43;;;11.40;99.90;;;;;;4981418;28;20050;-76
2022/10/23 08:09:45;;;;;;;20.58;11.23;;;11.40;99.90;;;;;;4976326;28;20042;-75
2022/10/23 08:12:10;;;;;;;20.08;11.70;;;11.50;99.90;;;;;;4992388;28;20092;-75
2022/10/23 08:14:36;;;;;;;19.98;11.35;;;11.50;99.90;;;;;;4992435;28;20089;-75
2022/10/23 08:17:03;;;;;;;19.63;11.40;;;11.60;99.90;;;;;;4992470;28;20034;-75
2022/10/23 08:19:29;;;;;;;15.30;10.18;;;11.60;99.90;;;;;;4992268;28;20054;-75
2022/10/23 08:21:56;;;;;;;16.92;10.98;;;11.60;99.90;;;;;;4992140;28;20042;-75
2022/10/23 08:24:22;;;;;;;18.88;11.35;;;11.70;99.90;;;;;;4992059;28;20042;-75
2022/10/23 08:26:49;;;;;;;14.38;9.98;;;11.70;99.90;;;;;;4990980;28;20493;-75
2022/10/23 08:29:14;;;;;;;15.48;9.57;;;11.70;99.90;;;;;;4975978;28;20124;-75
2022/10/23 08:31:40;;;;;;;17.80;10.65;;;11.80;99.90;;;;;;4992085;28;20074;-75
2022/10/23 08:34:05;;;;;;;17.75;10.75;;;11.80;99.90;;;;;;4975788;28;20042;-75
2022/10/23 08:36:32;;;;;;;14.65;9.60;;;11.80;99.90;;;;;;4975877;28;20038;-75
2022/10/23 08:38:58;;;;;;;16.58;10.70;;;11.90;99.90;;;;;;4992004;28;20078;-75
2022/10/23 08:41:31;;;;;;;19.98;11.00;;;11.90;99.90;;;;;;4975772;28;20086;-75
2022/10/23 08:44:13;;;;;;;14.70;10.15;;;12.00;99.90;;;;;;4994184;28;20126;-75
2022/10/23 08:46:43;;;;;;;16.33;9.35;;;12.00;99.90;;;;;;4995502;28;20038;-75
2022/10/23 08:49:32;;;;;;;17.85;8.80;;;12.00;99.90;;;;;;4995790;28;20034;-75
2022/10/23 08:52:01;;;;;;;17.02;9.82;;;12.20;99.90;;;;;;4979574;28;20034;-75
2022/10/23 08:54:37;;;;;;;17.92;9.32;;;12.20;99.90;;;;;;4979276;28;20038;-75
2022/10/23 08:57:11;;;;;;;16.55;11.80;;;12.20;99.90;;;;;;5011655;28;20061;-75
2022/10/23 08:59:44;;;;;;;16.23;9.55;;;12.30;99.90;;;;;;4973346;28;20078;-75
2022/10/23 09:02:14;;;;;;;15.82;9.55;;;12.30;99.90;;;;;;4995113;28;20050;-75
2022/10/23 09:04:42;;;;;;;15.38;8.18;;;12.30;99.90;;;;;;4995098;28;20074;-75
2022/10/23 09:07:28;;;;;;;17.00;9.27;;;12.40;99.90;;;;;;4995031;28;20133;-75
2022/10/23 09:10:12;;;;;;;17.98;9.20;;;12.50;99.90;;;;;;4995504;28;20481;-75
2022/10/23 09:12:39;;;;;;;17.33;9.13;;;12.50;99.90;;;;;;4995117;28;20049;-75
2022/10/23 09:15:23;;;;;;;12.10;7.88;;;12.50;99.90;;;;;;4994987;28;20093;-75
2022/10/23 09:18:00;;;;;;;15.13;8.90;;;12.60;99.90;;;;;;4995192;28;20492;-75
2022/10/23 09:20:33;;;;;;;16.23;9.70;;;12.70;99.90;;;;;;4994938;28;20049;-75
2022/10/23 09:23:02;;;;;;;12.07;8.52;;;12.70;99.90;;;;;;4978702;28;20096;-74
2022/10/23 09:25:36;;;;;;;13.77;8.77;;;12.80;99.90;;;;;;4994747;28;20046;-75
2022/10/23 09:28:02;;;;;;;14.98;8.80;;;12.80;99.90;;;;;;4994826;28;20528;-75
2022/10/23 09:30:33;;;;;;;17.65;8.40;;;12.80;99.90;;;;;;4994760;28;20034;-75
2022/10/23 09:32:59;;;;;;;16.25;8.48;;;13.00;99.90;;;;;;4977709;28;20373;-75
2022/10/23 09:35:28;;;;;;;14.38;8.48;;;13.00;99.90;;;;;;5027404;28;20046;-75
2022/10/23 09:37:54;;;;;;;17.75;8.70;;;13.10;99.90;;;;;;5011001;28;20042;-75
2022/10/23 09:40:39;;;;;;;12.38;7.85;;;13.10;99.90;;;;;;5027455;28;20045;-75
2022/10/23 09:43:16;;;;;;;16.27;9.07;;;13.20;99.90;;;;;;5010924;28;20046;-75
2022/10/23 09:45:42;;;;;;;13.90;7.70;;;13.20;99.90;;;;;;5027321;28;20068;-75
2022/10/23 09:48:12;;;;;;;11.68;8.57;;;13.20;99.90;;;;;;4994371;28;20390;-74
2022/10/23 09:50:48;;;;;;;13.80;7.57;;;13.30;99.90;;;;;;4994391;28;20038;-75
2022/10/23 09:53:19;;;;;;;13.50;7.82;;;13.40;99.90;;;;;;4994363;28;20038;-75
2022/10/23 09:55:54;;;;;;;13.02;7.60;;;13.40;99.90;;;;;;4993036;28;20571;-75
2022/10/23 09:58:50;;;;;;;13.60;7.63;;;13.40;99.90;;;;;;4976987;28;20065;-75
2022/10/23 10:01:31;;;;;;;15.38;7.65;;;13.50;99.90;;;;;;4978287;28;20053;-74
2022/10/23 10:03:57;;;;;;;15.65;7.72;;;13.60;99.90;;;;;;4994415;28;20405;-75
2022/10/23 10:06:29;;;;;;;12.68;7.78;;;13.60;99.90;;;;;;4994369;28;20120;-75
2022/10/23 10:08:57;;;;;;;14.60;7.43;;;13.70;99.90;;;;;;4994031;28;20089;-75
2022/10/23 10:11:36;;;;;;;12.63;7.15;;;13.70;99.90;;;;;;4993981;28;20043;-75
2022/10/23 10:14:10;;;;;;;13.77;8.18;;;13.80;99.90;;;;;;4993936;28;20069;-75
2022/10/23 10:17:30;;;;;;;12.10;7.32;;;13.80;99.90;;;;;;4977893;28;20459;-75
2022/10/23 10:20:17;;;;;;;11.93;6.97;;;13.80;99.90;;;;;;4957589;28;20490;-75
2022/10/23 10:22:51;;;;;;;13.05;6.90;;;13.90;99.90;;;;;;5007691;28;20132;-75
2022/10/23 10:25:43;;;;;;;16.42;7.18;;;14.00;99.90;;;;;;4993631;28;20484;-75
2022/10/23 10:28:15;;;;;;;11.60;7.22;;;14.10;99.90;;;;;;4992571;28;20084;-75
2022/10/23 10:31:08;;;;;;;11.95;6.18;;;14.20;99.90;;;;;;4993905;28;20401;-75
2022/10/23 10:33:37;;;;;;;12.60;6.75;;;14.30;99.90;;;;;;5026328;28;20092;-75
2022/10/23 10:36:48;;;;;;;12.90;5.78;;;14.40;99.90;;;;;;5026276;28;20046;-75
2022/10/23 10:39:26;;;;;;;15.73;6.45;;;14.40;99.90;;;;;;4990709;28;20493;-75
2022/10/23 10:42:00;;;;;;;15.55;6.25;;;14.50;99.90;;;;;;5009858;28;20041;-74
2022/10/23 10:45:04;;;;;;;11.73;6.20;;;14.70;99.90;;;;;;4992195;28;20049;-75
2022/10/23 10:48:00;;;;;;;10.80;5.63;;;14.70;99.90;;;;;;4993100;28;20043;-75
2022/10/23 10:50:49;;;;;;;11.90;5.22;;;14.70;99.90;;;;;;4976531;28;20061;-74
2022/10/23 10:53:24;;;;;;;11.55;5.57;;;14.70;99.90;;;;;;4993212;28;20177;-74
2022/10/23 10:55:55;;;;;;;10.70;5.45;;;14.80;99.90;;;;;;5009827;28;20046;-75
2022/10/23 10:58:49;;;;;;;12.10;5.25;;;14.80;99.90;;;;;;5009589;28;20620;-74
2022/10/23 11:01:44;;;;;;;10.82;5.38;;;14.80;99.90;;;;;;4976910;28;20046;-74
2022/10/23 11:04:10;;;;;;;10.07;5.40;;;14.80;99.90;;;;;;5008238;28;20133;-74
2022/10/23 11:06:37;;;;;;;13.07;5.40;;;14.80;99.90;;;;;;5009081;28;20077;-74
2022/10/23 11:09:24;;;;;;;10.77;5.72;;;14.80;99.90;;;;;;4976810;28;20117;-74
2022/10/23 11:11:50;;;;;;;13.98;5.80;;;14.80;99.90;;;;;;4991634;28;20134;-74
2022/10/23 11:14:18;;;;;;;15.18;5.88;;;14.90;99.90;;;;;;4992001;28;20121;-74
2022/10/23 11:16:57;;;;;;;12.70;5.35;;;14.90;99.90;;;;;;4990036;28;20041;-74
2022/10/23 11:19:42;;;;;;;11.13;5.38;;;14.90;99.90;;;;;;5023849;28;20073;-74
2022/10/23 11:22:22;;;;;;;10.63;4.82;;;15.00;99.90;;;;;;4991453;28;20053;-74
2022/10/23 11:25:22;;;;;;;11.80;5.45;;;15.10;99.90;;;;;;5009379;28;20100;-74
2022/10/23 11:28:26;;;;;;;12.85;6.00;;;15.10;99.90;;;;;;5008164;28;20042;-74
2022/10/23 11:31:06;;;;;;;11.48;5.65;;;15.20;99.90;;;;;;5002984;28;20128;-74
2022/10/23 11:34:10;;;;;;;13.38;7.20;;;15.40;99.90;;;;;;4992822;28;20104;-74
2022/10/23 11:36:56;;;;;;;13.60;7.03;;;15.40;99.90;;;;;;5006998;28;20156;-74
2022/10/23 11:39:26;;;;;;;9.77;5.00;;;15.40;99.90;;;;;;4992902;28;20046;-74
2022/10/23 11:41:53;;;;;;;13.38;5.40;;;15.50;99.90;;;;;;4992770;28;20134;-74
2022/10/23 11:44:46;;;;;;;11.25;5.43;;;15.40;99.90;;;;;;5008898;28;20037;-74
2022/10/23 11:47:32;;;;;;;13.60;5.88;;;15.40;99.90;;;;;;5001516;28;20081;-74
2022/10/23 11:50:06;;;;;;;10.95;5.03;;;15.40;99.90;;;;;;4992419;28;20045;-74
2022/10/23 11:52:34;;;;;;;7.88;4.65;;;15.40;99.90;;;;;;5008918;28;20042;-74
2022/10/23 11:55:02;;;;;;;10.07;4.93;;;15.40;99.90;;;;;;5008654;28;20043;-74
2022/10/23 11:57:28;;;;;;;9.40;4.60;;;15.40;99.90;;;;;;4991540;28;20093;-74
2022/10/23 11:59:55;;;;;;;11.63;5.75;;;15.40;99.90;;;;;;4992069;28;20065;-74
2022/10/23 12:02:37;;;;;;;10.25;5.40;;;15.50;99.90;;;;;;5024108;28;20129;-74
2022/10/23 12:05:06;;;;;;;10.25;4.53;;;15.50;99.90;;;;;;5008708;28;20038;-74
2022/10/23 12:07:40;;;;;;;12.02;5.30;;;15.60;99.90;;;;;;5013011;28;20471;-74
2022/10/23 12:10:25;;;;;;;13.20;5.18;;;15.60;99.90;;;;;;4994199;28;20093;-74
2022/10/23 12:12:57;;;;;;;12.57;5.55;;;15.70;99.90;;;;;;4989017;28;20050;-74
2022/10/23 12:15:24;;;;;;;11.00;4.85;;;15.80;99.90;;;;;;4977099;28;20377;-74
2022/10/23 12:17:53;;;;;;;13.35;5.63;;;15.90;99.90;;;;;;4974862;28;20046;-74
2022/10/23 12:20:30;;;;;;;10.55;5.18;;;15.80;99.90;;;;;;4976900;28;20056;-74
2022/10/23 12:23:09;;;;;;;16.05;5.10;;;15.90;99.90;;;;;;4978784;28;20128;-74
2022/10/23 12:25:44;;;;;;;12.63;5.32;;;15.80;99.90;;;;;;5028691;28;20047;-74
2022/10/23 12:28:33;;;;;;;11.38;4.65;;;15.80;99.90;;;;;;4979533;28;20443;-73
2022/10/23 12:31:36;;;;;;;11.10;5.15;;;15.90;99.90;;;;;;4996139;28;20042;-74
2022/10/23 12:34:08;;;;;;;16.23;5.03;;;15.90;99.90;;;;;;4992356;28;20038;-74
2022/10/23 12:36:40;;;;;;;9.98;4.22;;;15.90;99.90;;;;;;4978795;28;20050;-74
2022/10/23 12:39:26;;;;;;;11.20;4.70;;;15.90;99.90;;;;;;5027526;28;20049;-74
2022/10/23 12:41:52;;;;;;;10.98;4.82;;;15.90;99.90;;;;;;5027449;28;20038;-74
2022/10/23 12:44:17;;;;;;;9.15;4.85;;;15.90;99.90;;;;;;4995098;28;20041;-74
2022/10/23 12:46:48;;;;;;;14.45;4.45;;;15.90;99.90;;;;;;4978757;28;20049;-74
2022/10/23 12:49:17;;;;;;;9.93;4.38;;;15.90;99.90;;;;;;4979760;28;20084;-74
2022/10/23 12:51:43;;;;;;;9.05;4.00;;;15.90;99.90;;;;;;4993842;28;20515;-74
2022/10/23 12:54:15;;;;;;;8.50;4.22;;;15.80;99.90;;;;;;4994603;28;20042;-74